sensor_id;sensor_type;location;lat;lon;timestamp;P1;durP1;ratioP1;P2;durP2;ratioP2
26920;SDS011;14483;47.844;9.660;2023-02-28T00:00:35;7.40;;;3.20;;
26920;SDS011;14483;47.844;9.660;2023-02-28T00:03:02;8.70;;;5.10;;
26920;SDS011;14483;47.844;9.660;2023-02-28T00:05:28;7.93;;;4.45;;
26920;SDS011;14483;47.844;9.660;2023-02-28T00:07:55;6.35;;;3.47;;
26920;SDS011;14483;47.844;9.660;2023-02-28T00:10:30;6.45;;;3.17;;
26920;SDS011;14483;47.844;9.660;2023-02-28T00:13:00;6.00;;;4.00;;
26920;SDS011;14483;47.844;9.660;2023-02-28T00:15:26;6.93;;;3.17;;
26920;SDS011;14483;47.844;9.660;2023-02-28T00:17:53;6.28;;;3.53;;
26920;SDS011;14483;47.844;9.660;2023-02-28T00:20:19;5.93;;;3.10;;
26920;SDS011;14483;47.844;9.660;2023-02-28T00:22:46;4.28;;;2.97;;
26920;SDS011;14483;47.844;9.660;2023-02-28T00:25:14;5.03;;;2.80;;
26920;SDS011;14483;47.844;9.660;2023-02-28T00:27:41;5.22;;;3.28;;
26920;SDS011;14483;47.844;9.660;2023-02-28T00:30:10;5.45;;;3.03;;
26920;SDS011;14483;47.844;9.660;2023-02-28T00:32:37;6.20;;;3.20;;
26920;SDS011;14483;47.844;9.660;2023-02-28T00:35:04;6.05;;;2.53;;
26920;SDS011;14483;47.844;9.660;2023-02-28T00:37:31;7.20;;;3.75;;
26920;SDS011;14483;47.844;9.660;2023-02-28T00:39:57;6.00;;;3.10;;
26920;SDS011;14483;47.844;9.660;2023-02-28T00:42:24;9.00;;;4.30;;
26920;SDS011;14483;47.844;9.660;2023-02-28T00:44:50;4.40;;;3.05;;
26920;SDS011;14483;47.844;9.660;2023-02-28T00:47:18;6.72;;;3.50;;
26920;SDS011;14483;47.844;9.660;2023-02-28T00:49:44;6.35;;;3.20;;
26920;SDS011;14483;47.844;9.660;2023-02-28T00:52:10;5.53;;;3.30;;
26920;SDS011;14483;47.844;9.660;2023-02-28T00:54:37;8.13;;;3.83;;
26920;SDS011;14483;47.844;9.660;2023-02-28T00:57:03;5.90;;;3.38;;
26920;SDS011;14483;47.844;9.660;2023-02-28T00:59:29;6.22;;;2.88;;
26920;SDS011;14483;47.844;9.660;2023-02-28T01:01:56;6.68;;;3.47;;
26920;SDS011;14483;47.844;9.660;2023-02-28T01:04:23;7.13;;;3.30;;
26920;SDS011;14483;47.844;9.660;2023-02-28T01:06:50;7.25;;;4.15;;
26920;SDS011;14483;47.844;9.660;2023-02-28T01:09:16;5.32;;;3.22;;
26920;SDS011;14483;47.844;9.660;2023-02-28T01:11:42;8.18;;;4.15;;
26920;SDS011;14483;47.844;9.660;2023-02-28T01:14:11;6.15;;;3.53;;
26920;SDS011;14483;47.844;9.660;2023-02-28T01:16:38;5.03;;;3.35;;
26920;SDS011;14483;47.844;9.660;2023-02-28T01:19:04;5.75;;;3.13;;
26920;SDS011;14483;47.844;9.660;2023-02-28T01:21:32;4.82;;;2.90;;
26920;SDS011;14483;47.844;9.660;2023-02-28T01:23:59;5.75;;;2.80;;
26920;SDS011;14483;47.844;9.660;2023-02-28T01:26:26;4.28;;;2.60;;
26920;SDS011;14483;47.844;9.660;2023-02-28T01:28:52;4.57;;;2.70;;
26920;SDS011;14483;47.844;9.660;2023-02-28T01:31:19;5.32;;;3.03;;
26920;SDS011;14483;47.844;9.660;2023-02-28T01:33:46;4.88;;;2.90;;
26920;SDS011;14483;47.844;9.660;2023-02-28T01:36:14;6.03;;;3.15;;
26920;SDS011;14483;47.844;9.660;2023-02-28T01:38:42;4.30;;;2.50;;
26920;SDS011;14483;47.844;9.660;2023-02-28T01:41:09;4.18;;;2.90;;
26920;SDS011;14483;47.844;9.660;2023-02-28T01:46:30;4.88;;;2.85;;
26920;SDS011;14483;47.844;9.660;2023-02-28T01:48:58;5.50;;;2.70;;
26920;SDS011;14483;47.844;9.660;2023-02-28T01:51:27;5.10;;;2.58;;
26920;SDS011;14483;47.844;9.660;2023-02-28T01:53:57;5.57;;;2.60;;
26920;SDS011;14483;47.844;9.660;2023-02-28T01:56:26;4.38;;;2.63;;
26920;SDS011;14483;47.844;9.660;2023-02-28T01:58:53;4.35;;;2.33;;
26920;SDS011;14483;47.844;9.660;2023-02-28T02:01:20;4.13;;;2.53;;
26920;SDS011;14483;47.844;9.660;2023-02-28T02:03:47;3.65;;;2.10;;
26920;SDS011;14483;47.844;9.660;2023-02-28T02:06:20;5.22;;;2.75;;
26920;SDS011;14483;47.844;9.660;2023-02-28T02:08:46;5.97;;;3.10;;
26920;SDS011;14483;47.844;9.660;2023-02-28T02:11:14;3.50;;;1.83;;
26920;SDS011;14483;47.844;9.660;2023-02-28T02:13:46;4.72;;;2.55;;
26920;SDS011;14483;47.844;9.660;2023-02-28T02:16:21;6.80;;;2.38;;
26920;SDS011;14483;47.844;9.660;2023-02-28T02:18:50;5.18;;;2.60;;
26920;SDS011;14483;47.844;9.660;2023-02-28T02:21:42;4.45;;;2.70;;
26920;SDS011;14483;47.844;9.660;2023-02-28T02:27:07;6.78;;;2.63;;
26920;SDS011;14483;47.844;9.660;2023-02-28T02:29:40;5.07;;;2.58;;
26920;SDS011;14483;47.844;9.660;2023-02-28T02:32:14;5.07;;;2.58;;
26920;SDS011;14483;47.844;9.660;2023-02-28T02:34:49;5.57;;;2.67;;
26920;SDS011;14483;47.844;9.660;2023-02-28T02:37:22;9.27;;;2.50;;
26920;SDS011;14483;47.844;9.660;2023-02-28T02:39:55;4.95;;;2.92;;
26920;SDS011;14483;47.844;9.660;2023-02-28T02:42:25;5.22;;;2.80;;
26920;SDS011;14483;47.844;9.660;2023-02-28T02:44:56;5.47;;;2.58;;
26920;SDS011;14483;47.844;9.660;2023-02-28T02:47:24;4.60;;;2.53;;
26920;SDS011;14483;47.844;9.660;2023-02-28T02:49:54;4.85;;;2.50;;
26920;SDS011;14483;47.844;9.660;2023-02-28T02:52:22;6.13;;;2.72;;
26920;SDS011;14483;47.844;9.660;2023-02-28T02:54:50;7.13;;;2.50;;
26920;SDS011;14483;47.844;9.660;2023-02-28T02:57:20;5.30;;;2.17;;
26920;SDS011;14483;47.844;9.660;2023-02-28T02:59:47;3.88;;;2.50;;
26920;SDS011;14483;47.844;9.660;2023-02-28T03:02:15;5.95;;;2.67;;
26920;SDS011;14483;47.844;9.660;2023-02-28T03:04:45;9.02;;;2.95;;
26920;SDS011;14483;47.844;9.660;2023-02-28T03:07:14;5.47;;;3.38;;
26920;SDS011;14483;47.844;9.660;2023-02-28T03:09:40;6.28;;;3.13;;
26920;SDS011;14483;47.844;9.660;2023-02-28T03:12:08;8.25;;;3.47;;
26920;SDS011;14483;47.844;9.660;2023-02-28T03:14:39;9.00;;;2.88;;
26920;SDS011;14483;47.844;9.660;2023-02-28T03:17:17;6.95;;;3.10;;
26920;SDS011;14483;47.844;9.660;2023-02-28T03:19:48;4.50;;;2.70;;
26920;SDS011;14483;47.844;9.660;2023-02-28T03:22:29;6.30;;;3.20;;
26920;SDS011;14483;47.844;9.660;2023-02-28T03:25:01;4.35;;;2.40;;
26920;SDS011;14483;47.844;9.660;2023-02-28T03:27:29;6.32;;;3.35;;
26920;SDS011;14483;47.844;9.660;2023-02-28T03:30:05;4.60;;;2.95;;
26920;SDS011;14483;47.844;9.660;2023-02-28T03:32:33;5.60;;;2.92;;
26920;SDS011;14483;47.844;9.660;2023-02-28T03:35:03;4.90;;;2.97;;
26920;SDS011;14483;47.844;9.660;2023-02-28T03:37:33;5.82;;;3.35;;
26920;SDS011;14483;47.844;9.660;2023-02-28T03:40:02;6.78;;;3.30;;
26920;SDS011;14483;47.844;9.660;2023-02-28T03:42:31;5.68;;;3.13;;
26920;SDS011;14483;47.844;9.660;2023-02-28T03:45:00;8.93;;;3.60;;
26920;SDS011;14483;47.844;9.660;2023-02-28T03:47:29;5.55;;;3.58;;
26920;SDS011;14483;47.844;9.660;2023-02-28T03:49:59;4.28;;;2.95;;
26920;SDS011;14483;47.844;9.660;2023-02-28T03:52:27;6.30;;;3.88;;
26920;SDS011;14483;47.844;9.660;2023-02-28T03:54:57;5.40;;;2.90;;
26920;SDS011;14483;47.844;9.660;2023-02-28T03:57:26;6.57;;;3.35;;
26920;SDS011;14483;47.844;9.660;2023-02-28T03:59:54;5.60;;;3.22;;
26920;SDS011;14483;47.844;9.660;2023-02-28T04:02:22;5.65;;;3.05;;
26920;SDS011;14483;47.844;9.660;2023-02-28T04:04:49;6.32;;;3.58;;
26920;SDS011;14483;47.844;9.660;2023-02-28T04:07:16;7.95;;;3.40;;
26920;SDS011;14483;47.844;9.660;2023-02-28T04:09:42;5.80;;;3.33;;
26920;SDS011;14483;47.844;9.660;2023-02-28T04:12:10;7.20;;;3.42;;
26920;SDS011;14483;47.844;9.660;2023-02-28T04:14:37;9.27;;;3.92;;
26920;SDS011;14483;47.844;9.660;2023-02-28T04:17:03;6.60;;;3.70;;
26920;SDS011;14483;47.844;9.660;2023-02-28T04:19:29;6.95;;;3.67;;
26920;SDS011;14483;47.844;9.660;2023-02-28T04:21:56;6.82;;;3.28;;
26920;SDS011;14483;47.844;9.660;2023-02-28T04:24:23;6.80;;;4.28;;
26920;SDS011;14483;47.844;9.660;2023-02-28T04:26:50;6.10;;;3.47;;
26920;SDS011;14483;47.844;9.660;2023-02-28T04:29:19;8.27;;;3.65;;
26920;SDS011;14483;47.844;9.660;2023-02-28T04:31:46;7.05;;;3.55;;
26920;SDS011;14483;47.844;9.660;2023-02-28T04:34:12;7.10;;;3.80;;
26920;SDS011;14483;47.844;9.660;2023-02-28T04:36:39;8.35;;;4.03;;
26920;SDS011;14483;47.844;9.660;2023-02-28T04:39:05;7.18;;;4.28;;
26920;SDS011;14483;47.844;9.660;2023-02-28T04:41:31;6.28;;;3.75;;
26920;SDS011;14483;47.844;9.660;2023-02-28T04:43:58;6.05;;;3.45;;
26920;SDS011;14483;47.844;9.660;2023-02-28T04:46:25;7.45;;;4.50;;
26920;SDS011;14483;47.844;9.660;2023-02-28T04:48:52;8.35;;;4.63;;
26920;SDS011;14483;47.844;9.660;2023-02-28T04:51:19;7.95;;;4.05;;
26920;SDS011;14483;47.844;9.660;2023-02-28T04:53:46;7.88;;;4.28;;
26920;SDS011;14483;47.844;9.660;2023-02-28T04:56:12;6.22;;;3.55;;
26920;SDS011;14483;47.844;9.660;2023-02-28T04:58:39;5.43;;;3.25;;
26920;SDS011;14483;47.844;9.660;2023-02-28T05:01:06;6.75;;;3.65;;
26920;SDS011;14483;47.844;9.660;2023-02-28T05:03:38;6.32;;;3.47;;
26920;SDS011;14483;47.844;9.660;2023-02-28T05:06:06;7.75;;;4.43;;
26920;SDS011;14483;47.844;9.660;2023-02-28T05:08:32;6.18;;;4.30;;
26920;SDS011;14483;47.844;9.660;2023-02-28T05:10:59;6.20;;;3.70;;
26920;SDS011;14483;47.844;9.660;2023-02-28T05:13:26;7.47;;;3.92;;
26920;SDS011;14483;47.844;9.660;2023-02-28T05:15:53;7.47;;;3.70;;
26920;SDS011;14483;47.844;9.660;2023-02-28T05:18:19;7.32;;;4.15;;
26920;SDS011;14483;47.844;9.660;2023-02-28T05:20:47;5.85;;;3.67;;
26920;SDS011;14483;47.844;9.660;2023-02-28T05:23:14;9.05;;;3.97;;
26920;SDS011;14483;47.844;9.660;2023-02-28T05:25:41;9.48;;;4.85;;
26920;SDS011;14483;47.844;9.660;2023-02-28T05:28:07;10.50;;;4.47;;
26920;SDS011;14483;47.844;9.660;2023-02-28T05:30:33;7.47;;;4.38;;
26920;SDS011;14483;47.844;9.660;2023-02-28T05:33:00;7.75;;;4.10;;
26920;SDS011;14483;47.844;9.660;2023-02-28T05:35:26;7.57;;;4.35;;
26920;SDS011;14483;47.844;9.660;2023-02-28T05:37:54;8.50;;;4.00;;
26920;SDS011;14483;47.844;9.660;2023-02-28T05:40:20;7.80;;;4.05;;
26920;SDS011;14483;47.844;9.660;2023-02-28T05:42:47;7.68;;;4.28;;
26920;SDS011;14483;47.844;9.660;2023-02-28T05:45:13;6.95;;;3.67;;
26920;SDS011;14483;47.844;9.660;2023-02-28T05:47:39;10.52;;;4.82;;
26920;SDS011;14483;47.844;9.660;2023-02-28T05:50:06;7.03;;;4.22;;
26920;SDS011;14483;47.844;9.660;2023-02-28T05:52:34;7.28;;;4.00;;
26920;SDS011;14483;47.844;9.660;2023-02-28T05:55:02;6.25;;;3.85;;
26920;SDS011;14483;47.844;9.660;2023-02-28T05:57:28;7.50;;;4.10;;
26920;SDS011;14483;47.844;9.660;2023-02-28T05:59:55;7.72;;;3.97;;
26920;SDS011;14483;47.844;9.660;2023-02-28T06:02:21;7.13;;;4.45;;
26920;SDS011;14483;47.844;9.660;2023-02-28T06:04:47;7.15;;;4.10;;
26920;SDS011;14483;47.844;9.660;2023-02-28T06:07:14;7.45;;;3.70;;
26920;SDS011;14483;47.844;9.660;2023-02-28T06:09:41;8.95;;;4.47;;
26920;SDS011;14483;47.844;9.660;2023-02-28T06:12:09;7.28;;;3.83;;
26920;SDS011;14483;47.844;9.660;2023-02-28T06:14:36;8.18;;;4.80;;
26920;SDS011;14483;47.844;9.660;2023-02-28T06:17:02;6.97;;;4.25;;
26920;SDS011;14483;47.844;9.660;2023-02-28T06:19:29;7.78;;;4.72;;
26920;SDS011;14483;47.844;9.660;2023-02-28T06:21:56;8.75;;;5.07;;
26920;SDS011;14483;47.844;9.660;2023-02-28T06:24:22;7.88;;;4.80;;
26920;SDS011;14483;47.844;9.660;2023-02-28T06:26:49;7.13;;;4.47;;
26920;SDS011;14483;47.844;9.660;2023-02-28T06:29:17;9.38;;;4.88;;
26920;SDS011;14483;47.844;9.660;2023-02-28T06:31:43;9.43;;;4.93;;
26920;SDS011;14483;47.844;9.660;2023-02-28T06:34:10;11.57;;;4.68;;
26920;SDS011;14483;47.844;9.660;2023-02-28T06:36:37;7.95;;;4.18;;
26920;SDS011;14483;47.844;9.660;2023-02-28T06:39:03;7.85;;;5.45;;
26920;SDS011;14483;47.844;9.660;2023-02-28T06:41:29;10.35;;;6.45;;
26920;SDS011;14483;47.844;9.660;2023-02-28T06:43:56;9.32;;;5.07;;
26920;SDS011;14483;47.844;9.660;2023-02-28T06:46:23;10.43;;;5.05;;
26920;SDS011;14483;47.844;9.660;2023-02-28T06:48:50;8.88;;;4.22;;
26920;SDS011;14483;47.844;9.660;2023-02-28T06:51:17;8.90;;;4.75;;
26920;SDS011;14483;47.844;9.660;2023-02-28T06:53:45;12.15;;;5.68;;
26920;SDS011;14483;47.844;9.660;2023-02-28T06:56:12;8.80;;;4.25;;
26920;SDS011;14483;47.844;9.660;2023-02-28T06:58:39;8.82;;;4.32;;
26920;SDS011;14483;47.844;9.660;2023-02-28T07:01:05;11.15;;;5.78;;
26920;SDS011;14483;47.844;9.660;2023-02-28T07:03:34;12.48;;;7.20;;
26920;SDS011;14483;47.844;9.660;2023-02-28T07:06:00;9.80;;;5.55;;
26920;SDS011;14483;47.844;9.660;2023-02-28T07:08:27;10.70;;;6.00;;
26920;SDS011;14483;47.844;9.660;2023-02-28T07:10:54;9.75;;;5.43;;
26920;SDS011;14483;47.844;9.660;2023-02-28T07:13:21;8.02;;;5.60;;
26920;SDS011;14483;47.844;9.660;2023-02-28T07:15:52;9.73;;;6.03;;
26920;SDS011;14483;47.844;9.660;2023-02-28T07:18:19;9.05;;;6.30;;
26920;SDS011;14483;47.844;9.660;2023-02-28T07:20:46;10.05;;;5.15;;
26920;SDS011;14483;47.844;9.660;2023-02-28T07:23:13;9.85;;;6.25;;
26920;SDS011;14483;47.844;9.660;2023-02-28T07:25:39;8.20;;;4.53;;
26920;SDS011;14483;47.844;9.660;2023-02-28T07:28:06;9.57;;;4.68;;
26920;SDS011;14483;47.844;9.660;2023-02-28T07:30:32;10.20;;;6.10;;
26920;SDS011;14483;47.844;9.660;2023-02-28T07:32:58;12.20;;;6.82;;
26920;SDS011;14483;47.844;9.660;2023-02-28T07:35:25;12.68;;;6.07;;
26920;SDS011;14483;47.844;9.660;2023-02-28T07:37:52;14.35;;;6.68;;
26920;SDS011;14483;47.844;9.660;2023-02-28T07:40:19;11.13;;;5.43;;
26920;SDS011;14483;47.844;9.660;2023-02-28T07:42:46;8.30;;;5.20;;
26920;SDS011;14483;47.844;9.660;2023-02-28T07:45:12;11.40;;;5.63;;
26920;SDS011;14483;47.844;9.660;2023-02-28T07:47:39;10.55;;;6.18;;
26920;SDS011;14483;47.844;9.660;2023-02-28T07:50:06;11.10;;;5.22;;
26920;SDS011;14483;47.844;9.660;2023-02-28T07:52:33;10.38;;;5.97;;
26920;SDS011;14483;47.844;9.660;2023-02-28T07:55:00;7.53;;;5.15;;
26920;SDS011;14483;47.844;9.660;2023-02-28T07:57:27;10.38;;;6.15;;
26920;SDS011;14483;47.844;9.660;2023-02-28T07:59:53;9.43;;;5.93;;
26920;SDS011;14483;47.844;9.660;2023-02-28T08:02:19;10.13;;;5.80;;
26920;SDS011;14483;47.844;9.660;2023-02-28T08:04:46;10.35;;;6.35;;
26920;SDS011;14483;47.844;9.660;2023-02-28T08:07:13;10.43;;;5.13;;
26920;SDS011;14483;47.844;9.660;2023-02-28T08:09:39;8.48;;;5.78;;
26920;SDS011;14483;47.844;9.660;2023-02-28T08:12:07;11.60;;;5.63;;
26920;SDS011;14483;47.844;9.660;2023-02-28T08:14:33;11.50;;;6.28;;
26920;SDS011;14483;47.844;9.660;2023-02-28T08:17:00;9.50;;;4.85;;
26920;SDS011;14483;47.844;9.660;2023-02-28T08:19:26;9.55;;;5.35;;
26920;SDS011;14483;47.844;9.660;2023-02-28T08:21:53;10.88;;;4.82;;
26920;SDS011;14483;47.844;9.660;2023-02-28T08:24:19;10.98;;;5.45;;
26920;SDS011;14483;47.844;9.660;2023-02-28T08:26:45;11.77;;;7.18;;
26920;SDS011;14483;47.844;9.660;2023-02-28T08:29:13;11.52;;;5.65;;
26920;SDS011;14483;47.844;9.660;2023-02-28T08:31:40;9.93;;;5.97;;
26920;SDS011;14483;47.844;9.660;2023-02-28T08:34:06;11.68;;;6.10;;
26920;SDS011;14483;47.844;9.660;2023-02-28T08:36:33;10.48;;;5.43;;
26920;SDS011;14483;47.844;9.660;2023-02-28T08:39:00;9.25;;;5.60;;
26920;SDS011;14483;47.844;9.660;2023-02-28T08:41:26;11.10;;;5.50;;
26920;SDS011;14483;47.844;9.660;2023-02-28T08:43:52;9.20;;;5.82;;
26920;SDS011;14483;47.844;9.660;2023-02-28T08:46:21;12.70;;;6.55;;
26920;SDS011;14483;47.844;9.660;2023-02-28T08:48:51;9.90;;;5.65;;
26920;SDS011;14483;47.844;9.660;2023-02-28T08:51:17;13.13;;;6.65;;
26920;SDS011;14483;47.844;9.660;2023-02-28T08:53:47;13.25;;;6.57;;
26920;SDS011;14483;47.844;9.660;2023-02-28T08:58:58;13.98;;;6.60;;
26920;SDS011;14483;47.844;9.660;2023-02-28T09:01:26;9.40;;;6.25;;
26920;SDS011;14483;47.844;9.660;2023-02-28T09:03:53;12.05;;;6.68;;
26920;SDS011;14483;47.844;9.660;2023-02-28T09:06:21;12.55;;;6.93;;
26920;SDS011;14483;47.844;9.660;2023-02-28T09:08:48;12.23;;;6.20;;
26920;SDS011;14483;47.844;9.660;2023-02-28T09:11:14;11.60;;;6.72;;
26920;SDS011;14483;47.844;9.660;2023-02-28T09:13:41;12.55;;;6.30;;
26920;SDS011;14483;47.844;9.660;2023-02-28T09:16:08;15.70;;;7.55;;
26920;SDS011;14483;47.844;9.660;2023-02-28T09:18:36;15.15;;;7.45;;
26920;SDS011;14483;47.844;9.660;2023-02-28T09:21:03;15.30;;;7.28;;
26920;SDS011;14483;47.844;9.660;2023-02-28T09:23:29;10.93;;;6.20;;
26920;SDS011;14483;47.844;9.660;2023-02-28T09:25:56;12.02;;;6.60;;
26920;SDS011;14483;47.844;9.660;2023-02-28T09:28:22;9.98;;;6.22;;
26920;SDS011;14483;47.844;9.660;2023-02-28T09:30:51;12.60;;;6.07;;
26920;SDS011;14483;47.844;9.660;2023-02-28T09:33:19;16.92;;;7.15;;
26920;SDS011;14483;47.844;9.660;2023-02-28T09:35:47;13.38;;;7.03;;
26920;SDS011;14483;47.844;9.660;2023-02-28T09:38:14;12.25;;;6.53;;
26920;SDS011;14483;47.844;9.660;2023-02-28T09:40:48;11.77;;;7.10;;
26920;SDS011;14483;47.844;9.660;2023-02-28T09:43:16;14.25;;;8.55;;
26920;SDS011;14483;47.844;9.660;2023-02-28T09:45:46;31.45;;;14.52;;
26920;SDS011;14483;47.844;9.660;2023-02-28T09:48:14;13.90;;;8.82;;
26920;SDS011;14483;47.844;9.660;2023-02-28T09:50:43;14.88;;;8.38;;
26920;SDS011;14483;47.844;9.660;2023-02-28T09:53:13;14.95;;;7.45;;
26920;SDS011;14483;47.844;9.660;2023-02-28T09:55:42;17.98;;;8.25;;
26920;SDS011;14483;47.844;9.660;2023-02-28T09:58:10;13.00;;;7.22;;
26920;SDS011;14483;47.844;9.660;2023-02-28T10:00:42;11.90;;;6.72;;
26920;SDS011;14483;47.844;9.660;2023-02-28T10:03:17;18.45;;;7.45;;
26920;SDS011;14483;47.844;9.660;2023-02-28T10:05:50;12.60;;;7.10;;
26920;SDS011;14483;47.844;9.660;2023-02-28T10:08:21;14.13;;;6.80;;
26920;SDS011;14483;47.844;9.660;2023-02-28T10:10:51;11.63;;;6.20;;
26920;SDS011;14483;47.844;9.660;2023-02-28T10:13:22;14.50;;;8.05;;
26920;SDS011;14483;47.844;9.660;2023-02-28T10:15:51;11.40;;;6.47;;
26920;SDS011;14483;47.844;9.660;2023-02-28T10:18:20;10.95;;;6.75;;
26920;SDS011;14483;47.844;9.660;2023-02-28T10:20:47;12.02;;;6.63;;
26920;SDS011;14483;47.844;9.660;2023-02-28T10:23:16;13.82;;;7.07;;
26920;SDS011;14483;47.844;9.660;2023-02-28T10:25:47;12.13;;;7.00;;
26920;SDS011;14483;47.844;9.660;2023-02-28T10:28:16;13.88;;;7.35;;
26920;SDS011;14483;47.844;9.660;2023-02-28T10:30:44;11.43;;;6.40;;
26920;SDS011;14483;47.844;9.660;2023-02-28T10:33:15;11.57;;;6.07;;
26920;SDS011;14483;47.844;9.660;2023-02-28T10:35:43;13.23;;;6.57;;
26920;SDS011;14483;47.844;9.660;2023-02-28T10:38:14;13.88;;;7.15;;
26920;SDS011;14483;47.844;9.660;2023-02-28T10:40:41;7.13;;;3.85;;
26920;SDS011;14483;47.844;9.660;2023-02-28T10:43:17;11.88;;;6.63;;
26920;SDS011;14483;47.844;9.660;2023-02-28T10:45:52;12.98;;;6.22;;
26920;SDS011;14483;47.844;9.660;2023-02-28T10:48:30;13.73;;;6.63;;
26920;SDS011;14483;47.844;9.660;2023-02-28T10:50:58;12.77;;;7.45;;
26920;SDS011;14483;47.844;9.660;2023-02-28T10:54:05;13.05;;;6.65;;
26920;SDS011;14483;47.844;9.660;2023-02-28T10:56:30;12.90;;;7.80;;
26920;SDS011;14483;47.844;9.660;2023-02-28T10:58:58;15.82;;;6.93;;
26920;SDS011;14483;47.844;9.660;2023-02-28T11:01:27;12.75;;;7.05;;
26920;SDS011;14483;47.844;9.660;2023-02-28T11:04:00;13.90;;;6.72;;
26920;SDS011;14483;47.844;9.660;2023-02-28T11:06:28;13.73;;;6.50;;
26920;SDS011;14483;47.844;9.660;2023-02-28T11:08:56;12.35;;;7.35;;
26920;SDS011;14483;47.844;9.660;2023-02-28T11:11:23;11.98;;;6.85;;
26920;SDS011;14483;47.844;9.660;2023-02-28T11:13:53;12.35;;;7.88;;
26920;SDS011;14483;47.844;9.660;2023-02-28T11:16:20;16.98;;;6.93;;
26920;SDS011;14483;47.844;9.660;2023-02-28T11:18:47;11.70;;;7.18;;
26920;SDS011;14483;47.844;9.660;2023-02-28T11:21:15;27.05;;;11.68;;
26920;SDS011;14483;47.844;9.660;2023-02-28T11:23:42;55.83;;;20.90;;
26920;SDS011;14483;47.844;9.660;2023-02-28T11:26:10;18.40;;;9.98;;
26920;SDS011;14483;47.844;9.660;2023-02-28T11:28:37;14.80;;;8.82;;
26920;SDS011;14483;47.844;9.660;2023-02-28T11:31:17;14.77;;;8.63;;
26920;SDS011;14483;47.844;9.660;2023-02-28T11:33:45;12.35;;;7.95;;
26920;SDS011;14483;47.844;9.660;2023-02-28T11:36:14;13.73;;;7.80;;
26920;SDS011;14483;47.844;9.660;2023-02-28T11:38:41;14.32;;;7.40;;
26920;SDS011;14483;47.844;9.660;2023-02-28T11:41:17;15.65;;;8.18;;
26920;SDS011;14483;47.844;9.660;2023-02-28T11:44:00;13.45;;;7.03;;
26920;SDS011;14483;47.844;9.660;2023-02-28T11:46:31;13.77;;;8.00;;
26920;SDS011;14483;47.844;9.660;2023-02-28T11:49:02;15.80;;;8.30;;
26920;SDS011;14483;47.844;9.660;2023-02-28T11:51:32;14.65;;;8.18;;
26920;SDS011;14483;47.844;9.660;2023-02-28T11:54:03;12.82;;;8.20;;
26920;SDS011;14483;47.844;9.660;2023-02-28T11:56:36;10.55;;;6.38;;
26920;SDS011;14483;47.844;9.660;2023-02-28T11:59:09;12.70;;;7.57;;
26920;SDS011;14483;47.844;9.660;2023-02-28T12:01:45;12.77;;;7.40;;
26920;SDS011;14483;47.844;9.660;2023-02-28T12:04:17;11.88;;;7.47;;
26920;SDS011;14483;47.844;9.660;2023-02-28T12:06:49;12.75;;;7.88;;
26920;SDS011;14483;47.844;9.660;2023-02-28T12:14:47;14.88;;;7.63;;
26920;SDS011;14483;47.844;9.660;2023-02-28T12:17:20;13.63;;;9.18;;
26920;SDS011;14483;47.844;9.660;2023-02-28T12:19:48;15.10;;;8.10;;
26920;SDS011;14483;47.844;9.660;2023-02-28T12:22:27;14.95;;;8.77;;
26920;SDS011;14483;47.844;9.660;2023-02-28T12:24:59;12.82;;;7.65;;
26920;SDS011;14483;47.844;9.660;2023-02-28T12:27:30;11.73;;;8.25;;
26920;SDS011;14483;47.844;9.660;2023-02-28T12:29:58;12.63;;;8.35;;
26920;SDS011;14483;47.844;9.660;2023-02-28T12:32:30;12.05;;;6.97;;
26920;SDS011;14483;47.844;9.660;2023-02-28T12:34:58;13.65;;;8.57;;
26920;SDS011;14483;47.844;9.660;2023-02-28T12:37:27;12.65;;;8.02;;
26920;SDS011;14483;47.844;9.660;2023-02-28T12:39:56;14.57;;;8.45;;
26920;SDS011;14483;47.844;9.660;2023-02-28T12:42:26;16.23;;;7.95;;
26920;SDS011;14483;47.844;9.660;2023-02-28T12:44:54;16.17;;;8.10;;
26920;SDS011;14483;47.844;9.660;2023-02-28T12:47:22;13.07;;;8.63;;
26920;SDS011;14483;47.844;9.660;2023-02-28T12:49:51;14.30;;;8.32;;
26920;SDS011;14483;47.844;9.660;2023-02-28T12:52:20;16.73;;;10.02;;
26920;SDS011;14483;47.844;9.660;2023-02-28T12:54:50;12.82;;;8.07;;
26920;SDS011;14483;47.844;9.660;2023-02-28T12:57:22;12.23;;;6.97;;
26920;SDS011;14483;47.844;9.660;2023-02-28T12:59:54;17.10;;;9.73;;
26920;SDS011;14483;47.844;9.660;2023-02-28T13:05:24;15.57;;;10.93;;
26920;SDS011;14483;47.844;9.660;2023-02-28T13:07:58;15.02;;;9.27;;
26920;SDS011;14483;47.844;9.660;2023-02-28T13:10:37;15.52;;;8.80;;
26920;SDS011;14483;47.844;9.660;2023-02-28T13:13:04;20.95;;;10.73;;
26920;SDS011;14483;47.844;9.660;2023-02-28T13:15:30;17.90;;;11.30;;
26920;SDS011;14483;47.844;9.660;2023-02-28T13:18:00;14.25;;;8.50;;
26920;SDS011;14483;47.844;9.660;2023-02-28T13:20:29;13.88;;;8.55;;
26920;SDS011;14483;47.844;9.660;2023-02-28T13:22:57;13.68;;;8.52;;
26920;SDS011;14483;47.844;9.660;2023-02-28T13:31:04;14.27;;;8.60;;
26920;SDS011;14483;47.844;9.660;2023-02-28T13:36:07;12.90;;;7.70;;
26920;SDS011;14483;47.844;9.660;2023-02-28T13:38:35;15.02;;;8.63;;
26920;SDS011;14483;47.844;9.660;2023-02-28T13:44:00;14.38;;;7.85;;
26920;SDS011;14483;47.844;9.660;2023-02-28T13:46:26;14.20;;;8.32;;
26920;SDS011;14483;47.844;9.660;2023-02-28T13:48:53;17.33;;;9.68;;
26920;SDS011;14483;47.844;9.660;2023-02-28T13:54:16;15.48;;;9.27;;
26920;SDS011;14483;47.844;9.660;2023-02-28T13:56:45;14.80;;;8.95;;
26920;SDS011;14483;47.844;9.660;2023-02-28T13:59:16;20.13;;;9.57;;
26920;SDS011;14483;47.844;9.660;2023-02-28T14:01:48;16.42;;;9.77;;
26920;SDS011;14483;47.844;9.660;2023-02-28T14:04:33;17.30;;;10.55;;
26920;SDS011;14483;47.844;9.660;2023-02-28T14:07:04;18.98;;;11.20;;
26920;SDS011;14483;47.844;9.660;2023-02-28T14:09:32;17.40;;;11.02;;
26920;SDS011;14483;47.844;9.660;2023-02-28T14:14:54;20.38;;;10.57;;
26920;SDS011;14483;47.844;9.660;2023-02-28T14:17:21;17.00;;;10.20;;
26920;SDS011;14483;47.844;9.660;2023-02-28T14:19:48;17.55;;;10.63;;
26920;SDS011;14483;47.844;9.660;2023-02-28T14:22:18;19.73;;;11.57;;
26920;SDS011;14483;47.844;9.660;2023-02-28T14:25:03;20.23;;;9.70;;
26920;SDS011;14483;47.844;9.660;2023-02-28T14:27:36;15.07;;;9.32;;
26920;SDS011;14483;47.844;9.660;2023-02-28T14:30:11;16.17;;;9.98;;
26920;SDS011;14483;47.844;9.660;2023-02-28T14:32:40;20.05;;;10.60;;
26920;SDS011;14483;47.844;9.660;2023-02-28T14:35:13;20.02;;;9.73;;
26920;SDS011;14483;47.844;9.660;2023-02-28T14:37:42;15.18;;;9.68;;
26920;SDS011;14483;47.844;9.660;2023-02-28T14:40:15;13.52;;;8.63;;
26920;SDS011;14483;47.844;9.660;2023-02-28T14:42:46;16.88;;;9.57;;
26920;SDS011;14483;47.844;9.660;2023-02-28T14:45:17;23.63;;;11.85;;
26920;SDS011;14483;47.844;9.660;2023-02-28T14:47:43;15.77;;;9.88;;
26920;SDS011;14483;47.844;9.660;2023-02-28T14:50:17;16.58;;;9.82;;
26920;SDS011;14483;47.844;9.660;2023-02-28T14:52:44;17.05;;;9.07;;
26920;SDS011;14483;47.844;9.660;2023-02-28T14:55:12;16.60;;;8.93;;
26920;SDS011;14483;47.844;9.660;2023-02-28T14:57:42;16.20;;;9.35;;
26920;SDS011;14483;47.844;9.660;2023-02-28T15:00:17;17.40;;;9.82;;
26920;SDS011;14483;47.844;9.660;2023-02-28T15:02:46;18.70;;;10.68;;
26920;SDS011;14483;47.844;9.660;2023-02-28T15:08:01;15.80;;;9.50;;
26920;SDS011;14483;47.844;9.660;2023-02-28T15:10:28;21.13;;;10.65;;
26920;SDS011;14483;47.844;9.660;2023-02-28T15:13:00;53.30;;;21.63;;
26920;SDS011;14483;47.844;9.660;2023-02-28T15:15:30;21.23;;;11.05;;
26920;SDS011;14483;47.844;9.660;2023-02-28T15:18:02;16.13;;;9.70;;
26920;SDS011;14483;47.844;9.660;2023-02-28T15:20:29;13.55;;;9.05;;
26920;SDS011;14483;47.844;9.660;2023-02-28T15:22:57;17.05;;;10.00;;
26920;SDS011;14483;47.844;9.660;2023-02-28T15:25:24;27.15;;;14.50;;